Airfield :
LOGIN :

Register | Disclaimer

   EN    FR    IT 

 










Legend :    VFR   Marginal VFR   IFR   Intensive IFR   Very Intensive IFR
Visi :
Ceiling :
>= 8 km
>= 3000ft
5 to 8 km
1000 to 3000 ft
1500m to 5 km
500 to 1000 ft
800 to 1500m
200 to 500 ft
< 800m
< 200 ft
Symbols :   Thunderstorms  Fog  Heavy snow  Heavy precipitations  Wind > 20 kt
SIGMETs :     Misc.  Thunderstorms  Icing  Turbulence  Mountain Waves  Volcanic Ashes







- Airport Elevation : 0 ft


ETEB - Ansbach Army Heliport

CURRENT METAR :
  • 231347Z AUTO 24005KT 9999 FEW013 SCT019 BKN031 05/03 A3027 RMK AO2 RAB21E31DZB31E32RAB32E45DZB45E47 SLP281

EXPIRED METARs :
  • 231337Z AUTO 24005KT 9999 -RA SCT014 BKN020 BKN029 BKN035 04/03 A3028 RMK AO2 RAB21E31DZB31E32RAB32 CIG 020V031 SLP287
  • 231322Z AUTO 24005KT 9999 -RA SCT014 BKN035 BKN048 04/03 A3027 RMK AO2 RAB21 SLP283
  • 231256Z AUTO 23005KT 9999 OVC012 04/03 A3028 RMK AO2 SLP287 T00430026
  • 231200Z 23005KT 9999 BKN010 OVC047 04/03 A3029 RMK CIG 010V047 BKN V SCT SLP290
  • 231156Z AUTO 24006KT 9999 BKN010 OVC049 04/03 A3029 RMK AO2 SLP290 70001 T00400027 10040 20026 51009
  • 231111Z AUTO 25007KT 9999 OVC010 04/02 A3029 RMK AO2 SLP290
  • 231056Z AUTO 25005KT 9999 BKN009 OVC050 04/02 A3029 RMK AO2 SLP290 T00360024

TAF AMD TAF ETEB
Valid from the 23 at 13:00 until the 24 at 12:00 UTC


231314Z 2313/2412 24009KT 9999 BKN012 QNH3026INS
TEMPO 2313/2315 BKN015
BECMG 2314/2315 24007KT 9999 BKN035 6103504 QNH3025INS
BECMG 2320/2321 22009KT 8000 -SHRA BKN020 620305 QNH3026INS
TEMPO 2320/2406 BKN010
BECMG 2408/2409 22009KT 9999 NSW SCT030 QNH3020INS TX05/2406Z TN03/2322Z
No reported NOTAMs for that airfield.



MET'MAP, your aeronautical weather chart ! - Copyright ORBIFLY December 2007 - Disclaimer

ORBIFLY MET'MAP TEAM :

Programming & Development : Alexandra Zaïnal
Concept & Development : Baudouin d'Aumeries
Co-Development & Prog : Marc-Olivier Méhu
Technical & hardware support : Manuel Goepfert

Contact : metmap@orbifly.com




SOURCES & CREDITS :

   NOAA